sensor_id;sensor_type;location;lat;lon;timestamp;P1;durP1;ratioP1;P2;durP2;ratioP2
80163;SDS011;70071;55.130;61.268;2024-03-17T00:00:37;0.93;;;0.30;;
80163;SDS011;70071;55.130;61.268;2024-03-17T00:03:06;1.60;;;0.55;;
80163;SDS011;70071;55.130;61.268;2024-03-17T00:05:35;0.60;;;0.22;;
80163;SDS011;70071;55.130;61.268;2024-03-17T00:08:02;0.60;;;0.30;;
80163;SDS011;70071;55.130;61.268;2024-03-17T00:10:30;1.83;;;0.60;;
80163;SDS011;70071;55.130;61.268;2024-03-17T00:12:57;1.00;;;0.43;;
80163;SDS011;70071;55.130;61.268;2024-03-17T00:15:23;1.35;;;0.40;;
80163;SDS011;70071;55.130;61.268;2024-03-17T00:17:50;1.55;;;0.52;;
80163;SDS011;70071;55.130;61.268;2024-03-17T00:20:16;0.85;;;0.40;;
80163;SDS011;70071;55.130;61.268;2024-03-17T00:22:48;3.83;;;0.60;;
80163;SDS011;70071;55.130;61.268;2024-03-17T00:25:16;1.70;;;0.40;;
80163;SDS011;70071;55.130;61.268;2024-03-17T00:27:43;2.10;;;0.60;;
80163;SDS011;70071;55.130;61.268;2024-03-17T00:30:10;1.42;;;0.50;;
80163;SDS011;70071;55.130;61.268;2024-03-17T00:32:41;1.15;;;0.47;;
80163;SDS011;70071;55.130;61.268;2024-03-17T00:35:08;1.35;;;0.70;;
80163;SDS011;70071;55.130;61.268;2024-03-17T00:37:39;1.83;;;0.30;;
80163;SDS011;70071;55.130;61.268;2024-03-17T00:40:05;1.70;;;0.50;;
80163;SDS011;70071;55.130;61.268;2024-03-17T00:42:32;1.00;;;0.52;;
80163;SDS011;70071;55.130;61.268;2024-03-17T00:44:58;1.70;;;0.50;;
80163;SDS011;70071;55.130;61.268;2024-03-17T00:47:30;1.70;;;0.80;;
80163;SDS011;70071;55.130;61.268;2024-03-17T00:49:56;1.73;;;0.50;;
80163;SDS011;70071;55.130;61.268;2024-03-17T00:52:22;1.65;;;0.40;;
80163;SDS011;70071;55.130;61.268;2024-03-17T00:54:48;0.88;;;0.22;;
80163;SDS011;70071;55.130;61.268;2024-03-17T00:57:15;1.10;;;0.30;;
80163;SDS011;70071;55.130;61.268;2024-03-17T00:59:41;1.10;;;0.40;;
80163;SDS011;70071;55.130;61.268;2024-03-17T01:02:11;0.98;;;0.40;;
80163;SDS011;70071;55.130;61.268;2024-03-17T01:04:41;0.85;;;0.38;;
80163;SDS011;70071;55.130;61.268;2024-03-17T01:07:09;1.05;;;0.40;;
80163;SDS011;70071;55.130;61.268;2024-03-17T01:09:35;1.00;;;0.40;;
80163;SDS011;70071;55.130;61.268;2024-03-17T01:12:01;1.10;;;0.32;;
80163;SDS011;70071;55.130;61.268;2024-03-17T01:14:28;1.33;;;0.52;;
80163;SDS011;70071;55.130;61.268;2024-03-17T01:16:54;3.28;;;0.50;;
80163;SDS011;70071;55.130;61.268;2024-03-17T01:19:21;1.30;;;0.40;;
80163;SDS011;70071;55.130;61.268;2024-03-17T01:21:47;1.35;;;0.40;;
80163;SDS011;70071;55.130;61.268;2024-03-17T01:24:13;4.03;;;0.50;;
80163;SDS011;70071;55.130;61.268;2024-03-17T01:26:39;1.40;;;0.73;;
80163;SDS011;70071;55.130;61.268;2024-03-17T01:29:05;1.05;;;0.30;;
80163;SDS011;70071;55.130;61.268;2024-03-17T01:31:31;1.02;;;0.30;;
80163;SDS011;70071;55.130;61.268;2024-03-17T01:33:57;2.05;;;0.30;;
80163;SDS011;70071;55.130;61.268;2024-03-17T01:36:23;0.55;;;0.22;;
80163;SDS011;70071;55.130;61.268;2024-03-17T01:38:49;1.13;;;0.40;;
80163;SDS011;70071;55.130;61.268;2024-03-17T01:41:15;0.30;;;0.20;;
80163;SDS011;70071;55.130;61.268;2024-03-17T01:43:41;1.13;;;0.20;;
80163;SDS011;70071;55.130;61.268;2024-03-17T01:46:11;0.80;;;0.10;;
80163;SDS011;70071;55.130;61.268;2024-03-17T01:48:41;1.17;;;0.32;;
80163;SDS011;70071;55.130;61.268;2024-03-17T01:53:34;2.08;;;0.30;;
80163;SDS011;70071;55.130;61.268;2024-03-17T01:56:00;1.15;;;0.32;;
80163;SDS011;70071;55.130;61.268;2024-03-17T01:58:29;0.88;;;0.25;;
80163;SDS011;70071;55.130;61.268;2024-03-17T02:00:56;2.88;;;0.32;;
80163;SDS011;70071;55.130;61.268;2024-03-17T02:03:22;1.55;;;0.40;;
80163;SDS011;70071;55.130;61.268;2024-03-17T02:05:48;1.83;;;0.40;;
80163;SDS011;70071;55.130;61.268;2024-03-17T02:08:15;1.10;;;0.38;;
80163;SDS011;70071;55.130;61.268;2024-03-17T02:10:41;1.40;;;0.30;;
80163;SDS011;70071;55.130;61.268;2024-03-17T02:13:07;0.80;;;0.22;;
80163;SDS011;70071;55.130;61.268;2024-03-17T02:15:33;0.52;;;0.20;;
80163;SDS011;70071;55.130;61.268;2024-03-17T02:18:19;0.50;;;0.13;;
80163;SDS011;70071;55.130;61.268;2024-03-17T02:20:45;0.98;;;0.32;;
80163;SDS011;70071;55.130;61.268;2024-03-17T02:23:27;0.38;;;0.22;;
80163;SDS011;70071;55.130;61.268;2024-03-17T02:25:54;0.80;;;0.20;;
80163;SDS011;70071;55.130;61.268;2024-03-17T02:28:20;1.55;;;0.30;;
80163;SDS011;70071;55.130;61.268;2024-03-17T02:30:46;1.75;;;0.40;;
80163;SDS011;70071;55.130;61.268;2024-03-17T02:33:13;0.68;;;0.20;;
80163;SDS011;70071;55.130;61.268;2024-03-17T02:35:39;1.88;;;0.40;;
80163;SDS011;70071;55.130;61.268;2024-03-17T02:38:05;0.60;;;0.20;;
80163;SDS011;70071;55.130;61.268;2024-03-17T02:40:33;1.08;;;0.20;;
80163;SDS011;70071;55.130;61.268;2024-03-17T02:42:59;0.60;;;0.20;;
80163;SDS011;70071;55.130;61.268;2024-03-17T02:45:25;2.33;;;0.30;;
80163;SDS011;70071;55.130;61.268;2024-03-17T02:47:51;1.33;;;0.30;;
80163;SDS011;70071;55.130;61.268;2024-03-17T02:50:17;1.77;;;0.38;;
80163;SDS011;70071;55.130;61.268;2024-03-17T02:52:43;0.82;;;0.30;;
80163;SDS011;70071;55.130;61.268;2024-03-17T02:55:09;0.30;;;0.20;;
80163;SDS011;70071;55.130;61.268;2024-03-17T02:57:35;0.80;;;0.30;;
80163;SDS011;70071;55.130;61.268;2024-03-17T03:00:01;0.80;;;0.32;;
80163;SDS011;70071;55.130;61.268;2024-03-17T03:02:32;1.13;;;0.40;;
80163;SDS011;70071;55.130;61.268;2024-03-17T03:04:58;0.40;;;0.13;;
80163;SDS011;70071;55.130;61.268;2024-03-17T03:07:24;1.48;;;0.38;;
80163;SDS011;70071;55.130;61.268;2024-03-17T03:09:50;1.52;;;0.20;;
80163;SDS011;70071;55.130;61.268;2024-03-17T03:12:16;2.72;;;0.52;;
80163;SDS011;70071;55.130;61.268;2024-03-17T03:14:42;1.25;;;0.40;;
80163;SDS011;70071;55.130;61.268;2024-03-17T03:17:08;0.80;;;0.47;;
80163;SDS011;70071;55.130;61.268;2024-03-17T03:19:35;1.70;;;0.65;;
80163;SDS011;70071;55.130;61.268;2024-03-17T03:22:01;0.52;;;0.20;;
80163;SDS011;70071;55.130;61.268;2024-03-17T03:24:27;2.20;;;0.68;;
80163;SDS011;70071;55.130;61.268;2024-03-17T03:26:52;1.85;;;0.40;;
80163;SDS011;70071;55.130;61.268;2024-03-17T03:29:18;1.52;;;0.65;;
80163;SDS011;70071;55.130;61.268;2024-03-17T03:31:45;1.42;;;0.45;;
80163;SDS011;70071;55.130;61.268;2024-03-17T03:34:11;1.13;;;0.35;;
80163;SDS011;70071;55.130;61.268;2024-03-17T03:36:38;1.52;;;0.45;;
80163;SDS011;70071;55.130;61.268;2024-03-17T03:39:04;1.10;;;0.50;;
80163;SDS011;70071;55.130;61.268;2024-03-17T03:41:31;2.65;;;0.50;;
80163;SDS011;70071;55.130;61.268;2024-03-17T03:43:58;1.27;;;0.40;;
80163;SDS011;70071;55.130;61.268;2024-03-17T03:46:25;0.98;;;0.32;;
80163;SDS011;70071;55.130;61.268;2024-03-17T03:48:54;0.98;;;0.30;;
80163;SDS011;70071;55.130;61.268;2024-03-17T03:51:20;3.88;;;0.40;;
80163;SDS011;70071;55.130;61.268;2024-03-17T03:53:46;0.80;;;0.30;;
80163;SDS011;70071;55.130;61.268;2024-03-17T03:56:12;1.08;;;0.40;;
80163;SDS011;70071;55.130;61.268;2024-03-17T03:58:38;1.27;;;0.50;;
80163;SDS011;70071;55.130;61.268;2024-03-17T04:01:09;2.55;;;0.43;;
80163;SDS011;70071;55.130;61.268;2024-03-17T04:03:47;1.10;;;0.40;;
80163;SDS011;70071;55.130;61.268;2024-03-17T04:06:14;0.88;;;0.40;;
80163;SDS011;70071;55.130;61.268;2024-03-17T04:08:41;1.27;;;0.50;;
80163;SDS011;70071;55.130;61.268;2024-03-17T04:11:08;3.90;;;0.57;;
80163;SDS011;70071;55.130;61.268;2024-03-17T04:13:34;2.03;;;0.50;;
80163;SDS011;70071;55.130;61.268;2024-03-17T04:16:04;2.05;;;0.60;;
80163;SDS011;70071;55.130;61.268;2024-03-17T04:18:32;1.88;;;0.52;;
80163;SDS011;70071;55.130;61.268;2024-03-17T04:21:01;1.40;;;0.60;;
80163;SDS011;70071;55.130;61.268;2024-03-17T04:23:34;1.52;;;0.50;;
80163;SDS011;70071;55.130;61.268;2024-03-17T04:26:01;1.30;;;0.60;;
80163;SDS011;70071;55.130;61.268;2024-03-17T04:28:28;2.83;;;0.73;;
80163;SDS011;70071;55.130;61.268;2024-03-17T04:31:04;1.33;;;0.50;;
80163;SDS011;70071;55.130;61.268;2024-03-17T04:33:32;1.33;;;0.47;;
80163;SDS011;70071;55.130;61.268;2024-03-17T04:35:59;3.75;;;0.70;;
80163;SDS011;70071;55.130;61.268;2024-03-17T04:38:25;2.50;;;0.70;;
80163;SDS011;70071;55.130;61.268;2024-03-17T04:40:54;2.08;;;0.70;;
80163;SDS011;70071;55.130;61.268;2024-03-17T04:43:31;1.40;;;0.77;;
80163;SDS011;70071;55.130;61.268;2024-03-17T04:46:01;2.63;;;0.50;;
80163;SDS011;70071;55.130;61.268;2024-03-17T04:48:33;1.98;;;0.50;;
80163;SDS011;70071;55.130;61.268;2024-03-17T04:50:59;0.85;;;0.30;;
80163;SDS011;70071;55.130;61.268;2024-03-17T04:53:26;0.60;;;0.30;;
80163;SDS011;70071;55.130;61.268;2024-03-17T04:56:02;3.08;;;0.60;;
80163;SDS011;70071;55.130;61.268;2024-03-17T04:58:31;0.98;;;0.47;;
80163;SDS011;70071;55.130;61.268;2024-03-17T05:01:03;2.72;;;0.70;;
80163;SDS011;70071;55.130;61.268;2024-03-17T05:03:32;1.52;;;0.70;;
80163;SDS011;70071;55.130;61.268;2024-03-17T05:05:59;2.45;;;0.80;;
80163;SDS011;70071;55.130;61.268;2024-03-17T05:08:29;2.15;;;0.77;;
80163;SDS011;70071;55.130;61.268;2024-03-17T05:10:57;1.42;;;0.70;;
80163;SDS011;70071;55.130;61.268;2024-03-17T05:13:24;2.30;;;0.90;;
80163;SDS011;70071;55.130;61.268;2024-03-17T05:15:55;1.33;;;0.73;;
80163;SDS011;70071;55.130;61.268;2024-03-17T05:18:22;1.67;;;0.80;;
80163;SDS011;70071;55.130;61.268;2024-03-17T05:20:57;2.53;;;1.00;;
80163;SDS011;70071;55.130;61.268;2024-03-17T05:23:27;2.10;;;1.08;;
80163;SDS011;70071;55.130;61.268;2024-03-17T05:25:57;2.53;;;0.90;;
80163;SDS011;70071;55.130;61.268;2024-03-17T05:28:24;3.78;;;1.10;;
80163;SDS011;70071;55.130;61.268;2024-03-17T05:30:51;1.98;;;0.80;;
80163;SDS011;70071;55.130;61.268;2024-03-17T05:35:54;1.95;;;0.55;;
80163;SDS011;70071;55.130;61.268;2024-03-17T05:38:25;1.95;;;1.13;;
80163;SDS011;70071;55.130;61.268;2024-03-17T05:40:53;1.70;;;1.00;;
80163;SDS011;70071;55.130;61.268;2024-03-17T05:43:20;2.15;;;0.80;;
80163;SDS011;70071;55.130;61.268;2024-03-17T05:45:47;2.42;;;0.47;;
80163;SDS011;70071;55.130;61.268;2024-03-17T05:48:13;2.60;;;0.75;;
80163;SDS011;70071;55.130;61.268;2024-03-17T05:50:39;1.50;;;0.73;;
80163;SDS011;70071;55.130;61.268;2024-03-17T05:53:06;1.40;;;0.60;;
80163;SDS011;70071;55.130;61.268;2024-03-17T05:55:34;0.98;;;0.60;;
80163;SDS011;70071;55.130;61.268;2024-03-17T05:58:01;1.25;;;0.60;;
80163;SDS011;70071;55.130;61.268;2024-03-17T06:00:28;1.45;;;0.60;;
80163;SDS011;70071;55.130;61.268;2024-03-17T06:02:54;1.40;;;0.70;;
80163;SDS011;70071;55.130;61.268;2024-03-17T06:05:20;4.28;;;0.60;;
80163;SDS011;70071;55.130;61.268;2024-03-17T06:07:46;1.75;;;0.60;;
80163;SDS011;70071;55.130;61.268;2024-03-17T06:10:12;1.48;;;0.57;;
80163;SDS011;70071;55.130;61.268;2024-03-17T06:12:39;3.75;;;0.80;;
80163;SDS011;70071;55.130;61.268;2024-03-17T06:15:06;1.70;;;0.63;;
80163;SDS011;70071;55.130;61.268;2024-03-17T06:17:32;2.47;;;0.73;;
80163;SDS011;70071;55.130;61.268;2024-03-17T06:19:58;1.00;;;0.60;;
80163;SDS011;70071;55.130;61.268;2024-03-17T06:22:27;1.35;;;0.70;;
80163;SDS011;70071;55.130;61.268;2024-03-17T06:24:55;1.40;;;0.70;;
80163;SDS011;70071;55.130;61.268;2024-03-17T06:27:20;1.67;;;0.80;;
80163;SDS011;70071;55.130;61.268;2024-03-17T06:29:46;1.45;;;0.88;;
80163;SDS011;70071;55.130;61.268;2024-03-17T06:32:13;2.28;;;1.00;;
80163;SDS011;70071;55.130;61.268;2024-03-17T06:34:39;2.10;;;1.05;;
80163;SDS011;70071;55.130;61.268;2024-03-17T06:37:05;2.40;;;1.00;;
80163;SDS011;70071;55.130;61.268;2024-03-17T06:39:31;3.33;;;0.90;;
80163;SDS011;70071;55.130;61.268;2024-03-17T06:41:56;1.80;;;0.90;;
80163;SDS011;70071;55.130;61.268;2024-03-17T06:44:22;1.65;;;0.85;;
80163;SDS011;70071;55.130;61.268;2024-03-17T06:46:52;3.38;;;0.90;;
80163;SDS011;70071;55.130;61.268;2024-03-17T06:49:18;1.73;;;0.85;;
80163;SDS011;70071;55.130;61.268;2024-03-17T06:51:44;2.17;;;0.80;;
80163;SDS011;70071;55.130;61.268;2024-03-17T06:54:10;1.98;;;0.77;;
80163;SDS011;70071;55.130;61.268;2024-03-17T06:56:36;2.35;;;0.82;;
80163;SDS011;70071;55.130;61.268;2024-03-17T06:59:03;1.60;;;0.80;;
80163;SDS011;70071;55.130;61.268;2024-03-17T07:01:29;1.42;;;0.70;;
80163;SDS011;70071;55.130;61.268;2024-03-17T07:04:13;0.90;;;0.50;;
80163;SDS011;70071;55.130;61.268;2024-03-17T07:06:39;1.70;;;0.88;;
80163;SDS011;70071;55.130;61.268;2024-03-17T07:09:05;2.45;;;0.65;;
80163;SDS011;70071;55.130;61.268;2024-03-17T07:11:31;1.90;;;0.60;;
80163;SDS011;70071;55.130;61.268;2024-03-17T07:13:57;1.70;;;0.60;;
80163;SDS011;70071;55.130;61.268;2024-03-17T07:16:23;1.67;;;0.63;;
80163;SDS011;70071;55.130;61.268;2024-03-17T07:18:51;1.55;;;0.50;;
80163;SDS011;70071;55.130;61.268;2024-03-17T07:21:18;1.88;;;0.65;;
80163;SDS011;70071;55.130;61.268;2024-03-17T07:23:44;1.95;;;0.60;;
80163;SDS011;70071;55.130;61.268;2024-03-17T07:26:10;1.13;;;0.40;;
80163;SDS011;70071;55.130;61.268;2024-03-17T07:28:36;0.90;;;0.38;;
80163;SDS011;70071;55.130;61.268;2024-03-17T07:31:06;3.03;;;0.70;;
80163;SDS011;70071;55.130;61.268;2024-03-17T07:34:00;1.08;;;0.60;;
80163;SDS011;70071;55.130;61.268;2024-03-17T07:36:25;1.85;;;0.63;;
80163;SDS011;70071;55.130;61.268;2024-03-17T07:38:51;1.30;;;0.45;;
80163;SDS011;70071;55.130;61.268;2024-03-17T07:41:18;1.55;;;0.90;;
80163;SDS011;70071;55.130;61.268;2024-03-17T07:43:49;2.17;;;0.90;;
80163;SDS011;70071;55.130;61.268;2024-03-17T07:46:15;2.75;;;0.68;;
80163;SDS011;70071;55.130;61.268;2024-03-17T07:48:42;3.17;;;1.15;;
80163;SDS011;70071;55.130;61.268;2024-03-17T07:51:10;5.72;;;2.83;;
80163;SDS011;70071;55.130;61.268;2024-03-17T07:53:38;4.28;;;1.17;;
80163;SDS011;70071;55.130;61.268;2024-03-17T07:56:06;2.45;;;1.13;;
80163;SDS011;70071;55.130;61.268;2024-03-17T07:58:37;2.25;;;0.77;;
80163;SDS011;70071;55.130;61.268;2024-03-17T08:01:05;1.98;;;0.75;;
80163;SDS011;70071;55.130;61.268;2024-03-17T08:03:33;0.65;;;0.40;;
80163;SDS011;70071;55.130;61.268;2024-03-17T08:06:01;3.10;;;0.90;;
80163;SDS011;70071;55.130;61.268;2024-03-17T08:08:29;2.95;;;1.15;;
80163;SDS011;70071;55.130;61.268;2024-03-17T08:10:54;1.38;;;0.90;;
80163;SDS011;70071;55.130;61.268;2024-03-17T08:13:21;3.40;;;0.80;;
80163;SDS011;70071;55.130;61.268;2024-03-17T08:15:58;1.38;;;0.60;;
80163;SDS011;70071;55.130;61.268;2024-03-17T08:18:26;1.60;;;0.80;;
80163;SDS011;70071;55.130;61.268;2024-03-17T08:20:54;1.10;;;0.60;;
80163;SDS011;70071;55.130;61.268;2024-03-17T08:23:21;1.00;;;0.50;;
80163;SDS011;70071;55.130;61.268;2024-03-17T08:25:53;0.75;;;0.50;;
80163;SDS011;70071;55.130;61.268;2024-03-17T08:28:20;2.88;;;0.70;;
80163;SDS011;70071;55.130;61.268;2024-03-17T08:30:52;1.95;;;0.65;;
80163;SDS011;70071;55.130;61.268;2024-03-17T08:33:26;2.13;;;0.50;;
80163;SDS011;70071;55.130;61.268;2024-03-17T08:38:35;2.03;;;0.55;;
80163;SDS011;70071;55.130;61.268;2024-03-17T08:41:02;1.13;;;0.40;;
80163;SDS011;70071;55.130;61.268;2024-03-17T08:43:30;2.33;;;0.55;;
80163;SDS011;70071;55.130;61.268;2024-03-17T08:46:00;1.35;;;0.60;;
80163;SDS011;70071;55.130;61.268;2024-03-17T08:48:29;1.40;;;0.35;;
80163;SDS011;70071;55.130;61.268;2024-03-17T08:50:57;1.25;;;0.52;;
80163;SDS011;70071;55.130;61.268;2024-03-17T08:53:24;1.25;;;0.60;;
80163;SDS011;70071;55.130;61.268;2024-03-17T08:55:52;1.58;;;0.80;;
80163;SDS011;70071;55.130;61.268;2024-03-17T08:58:19;2.88;;;0.47;;
80163;SDS011;70071;55.130;61.268;2024-03-17T09:00:45;1.00;;;0.50;;
80163;SDS011;70071;55.130;61.268;2024-03-17T09:03:12;1.25;;;0.68;;
80163;SDS011;70071;55.130;61.268;2024-03-17T09:05:38;1.10;;;0.55;;
80163;SDS011;70071;55.130;61.268;2024-03-17T09:08:06;2.95;;;1.13;;
80163;SDS011;70071;55.130;61.268;2024-03-17T09:10:39;1.50;;;0.40;;
80163;SDS011;70071;55.130;61.268;2024-03-17T09:13:05;2.28;;;0.55;;
80163;SDS011;70071;55.130;61.268;2024-03-17T09:15:31;3.58;;;1.73;;
80163;SDS011;70071;55.130;61.268;2024-03-17T09:17:57;2.80;;;1.90;;
80163;SDS011;70071;55.130;61.268;2024-03-17T09:20:24;2.53;;;1.05;;
80163;SDS011;70071;55.130;61.268;2024-03-17T09:22:50;2.00;;;0.90;;
80163;SDS011;70071;55.130;61.268;2024-03-17T09:25:16;1.30;;;0.63;;
80163;SDS011;70071;55.130;61.268;2024-03-17T09:27:43;1.50;;;0.52;;
80163;SDS011;70071;55.130;61.268;2024-03-17T09:30:09;1.23;;;0.68;;
80163;SDS011;70071;55.130;61.268;2024-03-17T09:32:36;1.85;;;0.70;;
80163;SDS011;70071;55.130;61.268;2024-03-17T09:35:03;0.85;;;0.30;;
80163;SDS011;70071;55.130;61.268;2024-03-17T09:37:30;4.05;;;2.03;;
80163;SDS011;70071;55.130;61.268;2024-03-17T09:39:57;0.93;;;0.50;;
80163;SDS011;70071;55.130;61.268;2024-03-17T09:42:26;1.40;;;0.40;;
80163;SDS011;70071;55.130;61.268;2024-03-17T09:44:55;0.85;;;0.47;;
80163;SDS011;70071;55.130;61.268;2024-03-17T09:47:23;1.38;;;0.75;;
80163;SDS011;70071;55.130;61.268;2024-03-17T09:49:51;0.93;;;0.50;;
80163;SDS011;70071;55.130;61.268;2024-03-17T09:54:54;0.80;;;0.32;;
80163;SDS011;70071;55.130;61.268;2024-03-17T09:57:24;0.93;;;0.40;;
80163;SDS011;70071;55.130;61.268;2024-03-17T09:59:54;1.13;;;0.50;;
80163;SDS011;70071;55.130;61.268;2024-03-17T10:02:21;2.25;;;0.63;;
80163;SDS011;70071;55.130;61.268;2024-03-17T10:04:48;1.83;;;1.00;;
80163;SDS011;70071;55.130;61.268;2024-03-17T10:07:14;2.58;;;0.68;;
80163;SDS011;70071;55.130;61.268;2024-03-17T10:09:41;3.38;;;0.73;;
80163;SDS011;70071;55.130;61.268;2024-03-17T10:12:25;4.63;;;0.95;;
80163;SDS011;70071;55.130;61.268;2024-03-17T10:14:59;1.52;;;1.00;;
80163;SDS011;70071;55.130;61.268;2024-03-17T10:17:29;1.88;;;0.70;;
80163;SDS011;70071;55.130;61.268;2024-03-17T10:20:12;2.28;;;0.88;;
80163;SDS011;70071;55.130;61.268;2024-03-17T10:22:57;1.63;;;0.82;;
80163;SDS011;70071;55.130;61.268;2024-03-17T10:25:29;2.05;;;0.73;;
80163;SDS011;70071;55.130;61.268;2024-03-17T10:27:59;1.55;;;0.77;;
80163;SDS011;70071;55.130;61.268;2024-03-17T10:30:26;2.70;;;0.93;;
80163;SDS011;70071;55.130;61.268;2024-03-17T10:32:58;2.15;;;0.95;;
80163;SDS011;70071;55.130;61.268;2024-03-17T10:37:56;4.03;;;1.17;;
80163;SDS011;70071;55.130;61.268;2024-03-17T10:40:24;3.10;;;0.80;;
80163;SDS011;70071;55.130;61.268;2024-03-17T10:42:51;2.90;;;0.85;;
80163;SDS011;70071;55.130;61.268;2024-03-17T10:45:18;2.78;;;1.00;;
80163;SDS011;70071;55.130;61.268;2024-03-17T10:47:46;2.33;;;1.10;;
80163;SDS011;70071;55.130;61.268;2024-03-17T10:50:19;2.40;;;1.00;;
80163;SDS011;70071;55.130;61.268;2024-03-17T10:52:52;1.80;;;0.77;;
80163;SDS011;70071;55.130;61.268;2024-03-17T10:55:24;1.70;;;0.60;;
80163;SDS011;70071;55.130;61.268;2024-03-17T10:57:52;4.22;;;0.70;;
80163;SDS011;70071;55.130;61.268;2024-03-17T11:00:21;1.50;;;0.68;;
80163;SDS011;70071;55.130;61.268;2024-03-17T11:02:48;1.65;;;0.60;;
80163;SDS011;70071;55.130;61.268;2024-03-17T11:05:22;1.85;;;0.90;;
80163;SDS011;70071;55.130;61.268;2024-03-17T11:07:52;4.60;;;0.80;;
80163;SDS011;70071;55.130;61.268;2024-03-17T11:10:34;2.92;;;1.10;;
80163;SDS011;70071;55.130;61.268;2024-03-17T11:13:03;1.70;;;0.82;;
80163;SDS011;70071;55.130;61.268;2024-03-17T11:20:55;3.60;;;1.10;;
80163;SDS011;70071;55.130;61.268;2024-03-17T11:23:32;1.85;;;1.00;;
80163;SDS011;70071;55.130;61.268;2024-03-17T11:25:58;3.60;;;1.55;;
80163;SDS011;70071;55.130;61.268;2024-03-17T11:34:27;1.88;;;0.60;;
80163;SDS011;70071;55.130;61.268;2024-03-17T11:36:52;2.25;;;0.70;;
80163;SDS011;70071;55.130;61.268;2024-03-17T11:39:31;2.50;;;0.77;;
80163;SDS011;70071;55.130;61.268;2024-03-17T11:42:15;2.08;;;0.90;;
80163;SDS011;70071;55.130;61.268;2024-03-17T11:44:42;1.00;;;0.43;;
80163;SDS011;70071;55.130;61.268;2024-03-17T11:47:10;1.88;;;0.60;;
80163;SDS011;70071;55.130;61.268;2024-03-17T11:52:13;2.08;;;0.50;;
80163;SDS011;70071;55.130;61.268;2024-03-17T11:54:41;1.65;;;0.65;;
80163;SDS011;70071;55.130;61.268;2024-03-17T11:57:12;2.17;;;0.80;;
80163;SDS011;70071;55.130;61.268;2024-03-17T11:59:39;2.42;;;0.90;;
80163;SDS011;70071;55.130;61.268;2024-03-17T12:02:10;3.05;;;1.17;;
80163;SDS011;70071;55.130;61.268;2024-03-17T12:04:47;2.78;;;0.82;;
80163;SDS011;70071;55.130;61.268;2024-03-17T12:07:14;1.38;;;0.80;;
80163;SDS011;70071;55.130;61.268;2024-03-17T12:09:42;1.98;;;0.80;;
80163;SDS011;70071;55.130;61.268;2024-03-17T12:12:18;1.42;;;0.68;;
80163;SDS011;70071;55.130;61.268;2024-03-17T12:14:49;1.80;;;0.75;;
80163;SDS011;70071;55.130;61.268;2024-03-17T12:17:24;2.50;;;1.02;;
80163;SDS011;70071;55.130;61.268;2024-03-17T12:19:50;2.47;;;1.15;;
80163;SDS011;70071;55.130;61.268;2024-03-17T12:22:18;3.47;;;1.38;;
80163;SDS011;70071;55.130;61.268;2024-03-17T12:24:53;4.20;;;1.25;;
80163;SDS011;70071;55.130;61.268;2024-03-17T12:27:21;3.20;;;1.00;;
80163;SDS011;70071;55.130;61.268;2024-03-17T12:29:51;2.47;;;0.70;;
80163;SDS011;70071;55.130;61.268;2024-03-17T12:32:22;2.22;;;1.13;;
80163;SDS011;70071;55.130;61.268;2024-03-17T12:34:55;3.40;;;0.93;;
80163;SDS011;70071;55.130;61.268;2024-03-17T12:37:25;1.50;;;0.80;;
80163;SDS011;70071;55.130;61.268;2024-03-17T12:39:59;1.23;;;0.50;;
80163;SDS011;70071;55.130;61.268;2024-03-17T12:42:26;2.42;;;0.75;;
80163;SDS011;70071;55.130;61.268;2024-03-17T12:44:53;2.60;;;0.85;;
80163;SDS011;70071;55.130;61.268;2024-03-17T12:47:27;1.67;;;0.80;;
80163;SDS011;70071;55.130;61.268;2024-03-17T12:49:55;2.30;;;0.68;;
80163;SDS011;70071;55.130;61.268;2024-03-17T12:52:26;1.25;;;0.60;;
80163;SDS011;70071;55.130;61.268;2024-03-17T12:55:05;1.98;;;1.10;;
80163;SDS011;70071;55.130;61.268;2024-03-17T13:00:44;3.17;;;1.20;;
80163;SDS011;70071;55.130;61.268;2024-03-17T13:03:20;1.30;;;1.00;;
80163;SDS011;70071;55.130;61.268;2024-03-17T13:05:50;2.05;;;1.10;;
80163;SDS011;70071;55.130;61.268;2024-03-17T13:08:17;1.90;;;1.00;;
80163;SDS011;70071;55.130;61.268;2024-03-17T13:10:43;1.98;;;1.17;;
80163;SDS011;70071;55.130;61.268;2024-03-17T13:13:10;2.83;;;1.48;;
80163;SDS011;70071;55.130;61.268;2024-03-17T13:15:41;3.78;;;1.80;;
80163;SDS011;70071;55.130;61.268;2024-03-17T13:18:08;5.30;;;1.63;;
80163;SDS011;70071;55.130;61.268;2024-03-17T13:20:34;3.85;;;2.15;;
80163;SDS011;70071;55.130;61.268;2024-03-17T13:23:01;2.35;;;1.08;;
80163;SDS011;70071;55.130;61.268;2024-03-17T13:25:29;2.28;;;1.05;;
80163;SDS011;70071;55.130;61.268;2024-03-17T13:28:00;3.20;;;1.20;;
80163;SDS011;70071;55.130;61.268;2024-03-17T13:30:26;2.03;;;1.20;;
80163;SDS011;70071;55.130;61.268;2024-03-17T13:32:54;1.40;;;0.88;;
80163;SDS011;70071;55.130;61.268;2024-03-17T13:35:24;2.45;;;1.00;;
80163;SDS011;70071;55.130;61.268;2024-03-17T13:37:55;2.45;;;1.17;;
80163;SDS011;70071;55.130;61.268;2024-03-17T13:40:25;1.88;;;1.20;;
80163;SDS011;70071;55.130;61.268;2024-03-17T13:42:52;2.95;;;1.50;;
80163;SDS011;70071;55.130;61.268;2024-03-17T13:45:20;2.78;;;1.10;;
80163;SDS011;70071;55.130;61.268;2024-03-17T13:47:49;1.75;;;0.70;;
80163;SDS011;70071;55.130;61.268;2024-03-17T13:50:17;3.35;;;0.77;;
80163;SDS011;70071;55.130;61.268;2024-03-17T13:52:43;2.90;;;0.82;;
80163;SDS011;70071;55.130;61.268;2024-03-17T13:57:52;1.88;;;0.73;;
80163;SDS011;70071;55.130;61.268;2024-03-17T14:00:20;2.88;;;0.88;;
80163;SDS011;70071;55.130;61.268;2024-03-17T14:02:51;1.20;;;0.60;;
80163;SDS011;70071;55.130;61.268;2024-03-17T14:05:27;1.77;;;1.00;;
80163;SDS011;70071;55.130;61.268;2024-03-17T14:07:54;3.15;;;1.40;;
80163;SDS011;70071;55.130;61.268;2024-03-17T14:10:22;2.72;;;1.20;;
80163;SDS011;70071;55.130;61.268;2024-03-17T14:12:49;1.73;;;0.90;;
80163;SDS011;70071;55.130;61.268;2024-03-17T14:15:16;1.73;;;0.90;;
80163;SDS011;70071;55.130;61.268;2024-03-17T14:17:44;2.88;;;1.00;;
80163;SDS011;70071;55.130;61.268;2024-03-17T14:20:12;1.83;;;0.80;;
80163;SDS011;70071;55.130;61.268;2024-03-17T14:22:40;1.20;;;0.50;;
80163;SDS011;70071;55.130;61.268;2024-03-17T14:25:08;2.00;;;0.82;;
80163;SDS011;70071;55.130;61.268;2024-03-17T14:27:36;2.03;;;1.02;;
80163;SDS011;70071;55.130;61.268;2024-03-17T14:30:02;2.22;;;0.80;;
80163;SDS011;70071;55.130;61.268;2024-03-17T14:32:32;1.05;;;0.60;;
80163;SDS011;70071;55.130;61.268;2024-03-17T14:34:58;1.63;;;0.70;;
80163;SDS011;70071;55.130;61.268;2024-03-17T14:37:25;1.42;;;1.00;;
80163;SDS011;70071;55.130;61.268;2024-03-17T14:39:52;1.75;;;0.70;;
80163;SDS011;70071;55.130;61.268;2024-03-17T14:42:21;2.45;;;0.80;;
80163;SDS011;70071;55.130;61.268;2024-03-17T14:47:13;2.90;;;1.33;;
80163;SDS011;70071;55.130;61.268;2024-03-17T14:49:40;2.42;;;0.90;;
80163;SDS011;70071;55.130;61.268;2024-03-17T14:52:07;2.33;;;0.80;;
80163;SDS011;70071;55.130;61.268;2024-03-17T14:54:34;6.72;;;1.35;;
80163;SDS011;70071;55.130;61.268;2024-03-17T14:57:00;3.90;;;1.10;;
80163;SDS011;70071;55.130;61.268;2024-03-17T14:59:27;1.20;;;0.63;;
80163;SDS011;70071;55.130;61.268;2024-03-17T15:01:54;3.67;;;1.50;;
80163;SDS011;70071;55.130;61.268;2024-03-17T15:04:20;2.28;;;0.73;;
80163;SDS011;70071;55.130;61.268;2024-03-17T15:06:47;2.00;;;0.93;;
80163;SDS011;70071;55.130;61.268;2024-03-17T15:09:13;2.25;;;1.00;;
80163;SDS011;70071;55.130;61.268;2024-03-17T15:11:44;4.88;;;2.35;;
80163;SDS011;70071;55.130;61.268;2024-03-17T15:14:14;7.03;;;4.50;;